createdAt,value
2024-02-29T00:01:42.074Z,74.00
2024-02-29T00:04:36.976Z,73.60
2024-02-29T00:07:31.380Z,72.90
2024-02-29T00:10:26.549Z,71.00
2024-02-29T00:13:20.900Z,69.90
2024-02-29T00:16:15.931Z,70.20
2024-02-29T00:19:10.358Z,69.50
2024-02-29T00:22:05.394Z,68.10
2024-02-29T00:24:59.974Z,68.60
2024-02-29T00:27:54.568Z,68.00
2024-02-29T00:30:49.039Z,67.60
2024-02-29T00:33:43.898Z,67.40
2024-02-29T00:36:38.267Z,66.60
2024-02-29T00:39:32.754Z,67.60
2024-02-29T00:42:27.090Z,67.70
2024-02-29T00:45:21.503Z,66.40
2024-02-29T00:48:15.802Z,66.20
2024-02-29T00:51:10.143Z,66.30
2024-02-29T00:54:04.500Z,65.90
2024-02-29T00:56:58.938Z,65.80
2024-02-29T00:59:53.286Z,65.60
2024-02-29T01:02:47.918Z,65.50
2024-02-29T01:05:42.329Z,64.80
2024-02-29T01:08:36.730Z,64.40
2024-02-29T01:11:31.183Z,63.90
2024-02-29T01:14:25.635Z,63.60
2024-02-29T01:17:20.005Z,63.10
2024-02-29T01:20:14.803Z,64.30
2024-02-29T01:23:09.204Z,63.70
2024-02-29T01:26:03.549Z,63.40
2024-02-29T01:28:58.598Z,63.20
2024-02-29T01:31:53.043Z,62.60
2024-02-29T01:34:48.841Z,62.10
2024-02-29T01:37:44.035Z,62.30
2024-02-29T01:40:38.427Z,61.60
2024-02-29T01:43:32.952Z,60.80
2024-02-29T01:46:27.534Z,61.60
2024-02-29T01:49:23.088Z,62.00
2024-02-29T01:52:19.187Z,61.20
2024-02-29T01:55:14.597Z,59.30
2024-02-29T01:58:10.428Z,60.50
2024-02-29T02:01:06.484Z,60.60
2024-02-29T02:04:01.277Z,59.60
2024-02-29T02:06:57.513Z,59.50
2024-02-29T02:09:52.177Z,59.70
2024-02-29T02:12:48.803Z,58.30
2024-02-29T02:15:43.766Z,58.80
2024-02-29T02:18:38.598Z,59.30
2024-02-29T02:21:32.932Z,59.40
2024-02-29T02:24:28.261Z,58.90
2024-02-29T02:27:23.169Z,58.50
2024-02-29T02:30:17.672Z,58.80
2024-02-29T02:33:14.690Z,58.80
2024-02-29T02:36:09.212Z,58.70
2024-02-29T02:39:04.419Z,58.50
2024-02-29T02:41:58.913Z,58.10
2024-02-29T02:44:53.485Z,58.30
2024-02-29T02:47:47.942Z,58.40
2024-02-29T02:50:42.355Z,58.40
2024-02-29T02:53:37.623Z,58.00
2024-02-29T02:56:31.981Z,57.90
2024-02-29T02:59:26.823Z,57.60
2024-02-29T03:02:21.216Z,57.20
2024-02-29T03:05:15.731Z,57.70
2024-02-29T03:08:10.310Z,58.70
2024-02-29T03:11:04.840Z,59.00
2024-02-29T03:14:00.181Z,58.40
2024-02-29T03:16:54.743Z,58.50
2024-02-29T03:19:49.178Z,59.00
2024-02-29T03:22:44.036Z,58.70
2024-02-29T03:25:38.348Z,59.00
2024-02-29T03:28:32.841Z,58.60
2024-02-29T03:31:27.344Z,58.70
2024-02-29T03:34:21.933Z,58.90
2024-02-29T03:37:16.480Z,58.10
2024-02-29T03:40:11.741Z,58.00
2024-02-29T03:43:06.364Z,58.60
2024-02-29T03:46:01.512Z,58.70
2024-02-29T03:48:55.994Z,59.00
2024-02-29T03:51:50.379Z,58.60
2024-02-29T03:54:44.846Z,58.50
2024-02-29T03:57:39.306Z,59.00
2024-02-29T04:00:33.754Z,58.90
2024-02-29T04:03:28.100Z,58.60
2024-02-29T04:06:22.435Z,59.20
2024-02-29T04:09:17.345Z,59.00
2024-02-29T04:12:11.800Z,59.00
2024-02-29T04:15:06.569Z,59.00
2024-02-29T04:18:01.209Z,58.20
2024-02-29T04:20:55.743Z,59.10
2024-02-29T04:23:50.084Z,58.60
2024-02-29T04:26:44.679Z,59.00
2024-02-29T04:29:39.464Z,58.90
2024-02-29T04:32:33.815Z,58.70
2024-02-29T04:35:28.248Z,58.80
2024-02-29T04:38:22.571Z,59.00
2024-02-29T04:41:17.166Z,58.30
2024-02-29T04:44:11.814Z,58.80
2024-02-29T04:47:06.746Z,58.70
2024-02-29T04:50:01.378Z,58.80
2024-02-29T04:52:55.751Z,58.50
2024-02-29T04:55:50.133Z,58.70
2024-02-29T04:58:44.476Z,59.10
2024-02-29T05:01:39.046Z,58.40
2024-02-29T05:04:33.802Z,57.90
2024-02-29T05:07:28.269Z,57.30
2024-02-29T05:10:23.946Z,57.80
2024-02-29T05:13:18.531Z,57.40
2024-02-29T05:16:17.464Z,57.30
2024-02-29T05:19:12.972Z,57.60
2024-02-29T05:22:07.548Z,57.90
2024-02-29T05:25:02.261Z,57.70
2024-02-29T05:27:57.056Z,57.50
2024-02-29T05:30:51.905Z,57.70
2024-02-29T05:33:46.251Z,57.90
2024-02-29T05:36:40.647Z,58.20
2024-02-29T05:39:37.460Z,58.50
2024-02-29T05:42:31.901Z,58.30
2024-02-29T05:45:26.333Z,58.50
2024-02-29T05:48:20.950Z,58.80
2024-02-29T05:51:15.756Z,58.80
2024-02-29T05:54:10.133Z,59.10
2024-02-29T05:57:06.225Z,59.30
2024-02-29T06:00:06.414Z,59.60
2024-02-29T06:03:00.745Z,59.10
2024-02-29T06:05:55.162Z,59.30
2024-02-29T06:08:49.556Z,59.70
2024-02-29T06:11:44.532Z,59.90
2024-02-29T06:14:39.309Z,60.20
2024-02-29T06:17:33.916Z,59.80
2024-02-29T06:20:28.305Z,60.10
2024-02-29T06:23:22.642Z,60.60
2024-02-29T06:26:17.545Z,60.80
2024-02-29T06:29:11.911Z,60.70
2024-02-29T06:32:06.593Z,60.90
2024-02-29T06:35:01.291Z,60.90
2024-02-29T06:37:55.937Z,61.30
2024-02-29T06:40:50.822Z,61.20
2024-02-29T06:43:45.322Z,61.60
2024-02-29T06:46:39.935Z,61.60
2024-02-29T06:49:34.373Z,61.90
2024-02-29T06:52:29.344Z,61.50
2024-02-29T06:55:23.733Z,61.90
2024-02-29T06:58:18.280Z,61.80
2024-02-29T07:01:15.376Z,61.80
2024-02-29T07:04:09.852Z,62.00
2024-02-29T07:07:05.994Z,62.60
2024-02-29T07:10:00.420Z,62.90
2024-02-29T07:12:54.883Z,62.40
2024-02-29T07:15:49.441Z,62.70
2024-02-29T07:18:44.240Z,62.90
2024-02-29T07:21:38.900Z,63.10
2024-02-29T07:24:33.728Z,63.40
2024-02-29T07:27:28.127Z,63.30
2024-02-29T07:30:23.276Z,63.40
2024-02-29T07:33:17.744Z,64.00
2024-02-29T07:36:12.839Z,64.30
2024-02-29T07:39:09.191Z,64.70
2024-02-29T07:42:03.552Z,65.10
2024-02-29T07:44:57.926Z,65.30
2024-02-29T07:47:52.538Z,65.40
2024-02-29T07:50:47.000Z,65.40
2024-02-29T07:53:42.489Z,65.40
2024-02-29T07:56:37.045Z,65.70
2024-02-29T07:59:31.394Z,65.40
2024-02-29T08:02:25.758Z,65.30
2024-02-29T08:05:20.216Z,65.40
2024-02-29T08:08:14.702Z,65.30
2024-02-29T08:11:10.621Z,65.10
2024-02-29T08:14:05.077Z,65.20
2024-02-29T08:16:59.492Z,65.00
2024-02-29T08:19:53.810Z,64.80
2024-02-29T08:22:48.219Z,63.20
2024-02-29T08:25:42.669Z,62.50
2024-02-29T08:28:37.956Z,61.80
2024-02-29T08:31:32.421Z,61.40
2024-02-29T08:34:26.884Z,61.60
2024-02-29T08:37:21.313Z,61.70
2024-02-29T08:40:16.222Z,61.60
2024-02-29T08:43:10.720Z,62.00
2024-02-29T08:46:06.440Z,62.30
2024-02-29T08:49:03.325Z,63.10
2024-02-29T08:51:58.333Z,62.50
2024-02-29T08:54:52.795Z,62.50
2024-02-29T08:57:47.131Z,62.50
2024-02-29T09:00:41.552Z,62.50
2024-02-29T09:03:36.050Z,62.60
2024-02-29T09:06:36.217Z,62.40
2024-02-29T09:09:35.671Z,62.40
2024-02-29T09:12:30.045Z,61.90
2024-02-29T09:15:24.588Z,62.60
2024-02-29T09:18:18.946Z,62.80
2024-02-29T09:21:13.261Z,63.00
2024-02-29T09:24:08.057Z,62.90
2024-02-29T09:27:02.546Z,63.00
2024-02-29T09:29:58.703Z,63.20
2024-02-29T09:32:54.681Z,62.80
2024-02-29T09:35:49.029Z,63.20
2024-02-29T09:38:43.819Z,63.40
2024-02-29T09:44:36.081Z,63.50
2024-02-29T09:47:32.272Z,63.80
2024-02-29T09:50:26.791Z,64.00
2024-02-29T09:53:22.301Z,64.40
2024-02-29T09:56:17.350Z,64.50
2024-02-29T09:59:24.040Z,64.60
2024-02-29T10:02:18.510Z,64.60
2024-02-29T10:05:13.452Z,64.90
2024-02-29T10:08:08.139Z,65.00
2024-02-29T10:11:04.255Z,65.20
2024-02-29T10:13:59.762Z,65.30
2024-02-29T10:16:57.643Z,65.00
2024-02-29T10:19:56.679Z,65.20
2024-02-29T10:22:57.188Z,65.10
2024-02-29T10:25:53.588Z,64.60
2024-02-29T10:28:47.983Z,63.50
2024-02-29T10:31:42.305Z,63.10
2024-02-29T10:34:38.994Z,62.60
2024-02-29T10:37:34.216Z,62.10
2024-02-29T10:40:28.785Z,61.90
2024-02-29T10:43:24.408Z,61.90
2024-02-29T10:46:22.902Z,62.00
2024-02-29T10:49:32.364Z,60.90
2024-02-29T10:52:36.408Z,60.80
2024-02-29T10:55:37.299Z,60.60
2024-02-29T10:58:42.370Z,60.60
2024-02-29T11:01:39.045Z,60.60
2024-02-29T11:04:34.008Z,60.60
2024-02-29T11:07:29.223Z,60.40
2024-02-29T11:10:24.314Z,60.00
2024-02-29T11:13:22.958Z,59.90
2024-02-29T11:16:19.858Z,59.30
2024-02-29T11:19:20.399Z,59.60
2024-02-29T11:22:15.837Z,59.80
2024-02-29T11:25:13.017Z,59.90
2024-02-29T11:28:07.769Z,60.00
2024-02-29T11:31:16.946Z,60.00
2024-02-29T11:34:11.885Z,59.90
2024-02-29T11:37:09.622Z,60.00
2024-02-29T11:40:18.291Z,60.20
2024-02-29T11:43:12.793Z,60.40
2024-02-29T11:46:12.047Z,60.50
2024-02-29T11:49:06.447Z,60.60
2024-02-29T11:52:01.301Z,60.70
2024-02-29T11:54:56.422Z,60.70
2024-02-29T11:57:50.951Z,60.70
2024-02-29T12:00:45.382Z,60.60
2024-02-29T12:03:39.915Z,60.80
2024-02-29T12:06:35.277Z,61.10
2024-02-29T12:09:29.658Z,61.00
2024-02-29T12:12:24.244Z,61.40
2024-02-29T12:15:19.655Z,61.60
2024-02-29T12:18:14.082Z,61.60
2024-02-29T12:21:09.674Z,61.70
2024-02-29T12:24:04.876Z,61.70
2024-02-29T12:26:59.230Z,61.60
2024-02-29T12:29:55.130Z,61.70
2024-02-29T12:32:53.937Z,61.80
2024-02-29T12:35:48.332Z,61.80
2024-02-29T12:38:46.766Z,62.10
2024-02-29T12:41:41.201Z,62.40
2024-02-29T12:44:36.195Z,62.60
2024-02-29T12:47:31.168Z,62.90
2024-02-29T12:50:25.625Z,62.80
2024-02-29T12:53:20.573Z,63.20
2024-02-29T12:56:15.809Z,63.40
2024-02-29T12:59:10.255Z,63.30
2024-02-29T13:02:05.249Z,63.30
2024-02-29T13:04:59.661Z,63.50
2024-02-29T13:07:54.800Z,63.80
2024-02-29T13:10:49.198Z,64.00
2024-02-29T13:13:43.631Z,64.10
2024-02-29T13:16:37.994Z,64.10
2024-02-29T13:19:32.410Z,64.10
2024-02-29T13:22:26.851Z,64.20
2024-02-29T13:25:21.461Z,65.10
2024-02-29T13:28:16.072Z,64.60
2024-02-29T13:31:12.957Z,64.70
2024-02-29T13:34:07.324Z,64.70
2024-02-29T13:37:01.781Z,64.50
2024-02-29T13:39:56.228Z,64.80
2024-02-29T13:42:51.022Z,64.70
2024-02-29T13:45:45.433Z,64.80
2024-02-29T13:48:40.388Z,65.10
2024-02-29T13:51:34.756Z,65.30
2024-02-29T13:54:29.130Z,65.30
2024-02-29T13:57:23.446Z,65.50
2024-02-29T14:00:18.272Z,65.60
2024-02-29T14:03:13.810Z,65.50
2024-02-29T14:06:08.356Z,65.40
2024-02-29T14:09:02.710Z,65.50
2024-02-29T14:11:57.178Z,65.70
2024-02-29T14:14:51.456Z,65.40
2024-02-29T14:17:46.108Z,65.30
2024-02-29T14:20:40.509Z,65.30
2024-02-29T14:23:35.045Z,65.40
2024-02-29T14:26:29.429Z,65.50
2024-02-29T14:29:23.782Z,65.40
2024-02-29T14:32:18.661Z,65.40
2024-02-29T14:35:13.231Z,65.40
2024-02-29T14:38:07.933Z,65.70
2024-02-29T14:41:02.332Z,66.00
2024-02-29T14:43:58.132Z,66.10
2024-02-29T14:46:53.384Z,66.20
2024-02-29T14:49:47.819Z,66.40
2024-02-29T14:52:43.129Z,66.60
2024-02-29T14:55:37.525Z,66.60
2024-02-29T14:58:32.177Z,66.80
2024-02-29T15:01:27.642Z,67.00
2024-02-29T15:04:22.348Z,67.30
2024-02-29T15:07:17.034Z,67.30
2024-02-29T15:10:14.785Z,67.50
2024-02-29T15:13:09.244Z,67.70
2024-02-29T15:16:03.840Z,67.80
2024-02-29T15:18:58.981Z,67.80
2024-02-29T15:21:53.519Z,67.90
2024-02-29T15:24:48.978Z,68.10
2024-02-29T15:27:44.791Z,68.30
2024-02-29T15:30:39.395Z,68.40
2024-02-29T15:33:33.931Z,68.50
2024-02-29T15:36:28.483Z,68.80
2024-02-29T15:39:24.041Z,69.10
2024-02-29T15:42:18.359Z,69.20
2024-02-29T15:45:15.077Z,69.30
2024-02-29T15:48:09.981Z,69.30
2024-02-29T15:51:04.570Z,69.50
2024-02-29T15:53:59.024Z,69.60
2024-02-29T15:56:53.446Z,69.30
2024-02-29T15:59:47.803Z,69.20
2024-02-29T16:02:42.709Z,69.20
2024-02-29T16:05:37.102Z,69.30
2024-02-29T16:08:31.686Z,69.20
2024-02-29T16:11:26.317Z,69.30
2024-02-29T16:14:20.952Z,69.60
2024-02-29T16:17:15.272Z,69.80
2024-02-29T16:20:10.461Z,70.00
2024-02-29T16:23:05.340Z,70.20
2024-02-29T16:25:59.714Z,70.40
2024-02-29T16:28:56.420Z,70.50
2024-02-29T16:31:51.125Z,70.70
2024-02-29T16:34:45.444Z,70.80
2024-02-29T16:37:40.252Z,70.80
2024-02-29T16:40:38.400Z,70.90
2024-02-29T16:43:32.962Z,71.20
2024-02-29T16:46:27.536Z,71.20
2024-02-29T16:49:22.067Z,71.50
2024-02-29T16:52:16.613Z,71.60
2024-02-29T16:55:11.239Z,71.70
2024-02-29T16:58:05.961Z,71.80
2024-02-29T17:01:00.566Z,71.90
2024-02-29T17:03:55.030Z,72.10
2024-02-29T17:06:49.872Z,72.10
2024-02-29T17:09:44.293Z,72.10
2024-02-29T17:12:39.614Z,72.10
2024-02-29T17:15:36.571Z,72.20
2024-02-29T17:18:32.561Z,72.20
2024-02-29T17:21:30.514Z,72.40
2024-02-29T17:24:24.974Z,72.60
2024-02-29T17:27:19.339Z,72.90
2024-02-29T17:30:14.326Z,73.00
2024-02-29T17:33:08.661Z,73.10
2024-02-29T17:36:03.066Z,74.00
2024-02-29T17:38:57.344Z,73.50
2024-02-29T17:41:51.690Z,74.30
2024-02-29T17:44:46.020Z,73.70
2024-02-29T17:47:42.871Z,73.70
2024-02-29T17:50:37.306Z,73.80
2024-02-29T17:53:31.790Z,73.80
2024-02-29T17:56:26.108Z,74.10
2024-02-29T17:59:20.875Z,74.10
2024-02-29T18:02:15.255Z,74.00
2024-02-29T18:05:10.389Z,74.10
2024-02-29T18:08:07.169Z,74.20
2024-02-29T18:11:02.111Z,74.50
2024-02-29T18:13:56.423Z,74.30
2024-02-29T18:16:51.012Z,74.30
2024-02-29T18:19:45.324Z,74.30
2024-02-29T18:22:39.708Z,74.40
2024-02-29T18:25:34.157Z,74.30
2024-02-29T18:28:28.820Z,74.20
2024-02-29T18:31:23.252Z,74.40
2024-02-29T18:34:17.676Z,74.50
2024-02-29T18:37:13.210Z,74.50
2024-02-29T18:40:11.150Z,74.70
2024-02-29T18:43:06.913Z,74.70
2024-02-29T18:46:05.922Z,74.90
2024-02-29T18:49:01.271Z,74.90
2024-02-29T18:51:56.418Z,74.90
2024-02-29T18:54:50.824Z,75.20
2024-02-29T18:57:46.692Z,75.40
2024-02-29T19:00:42.279Z,75.70
2024-02-29T19:03:36.835Z,75.70
2024-02-29T19:06:31.113Z,75.70
2024-02-29T19:09:25.638Z,76.00
2024-02-29T19:12:19.960Z,75.90
2024-02-29T19:15:14.438Z,76.10
2024-02-29T19:18:09.490Z,76.00
2024-02-29T19:21:04.709Z,76.10
2024-02-29T19:23:59.003Z,75.90
2024-02-29T19:26:53.479Z,75.60
2024-02-29T19:29:52.284Z,75.50
2024-02-29T19:32:46.875Z,76.00
2024-02-29T19:35:41.412Z,75.20
2024-02-29T19:38:35.810Z,75.30
2024-02-29T19:41:30.231Z,75.00
2024-02-29T19:44:24.995Z,75.10
2024-02-29T19:47:23.132Z,74.90
2024-02-29T19:50:22.773Z,75.00
2024-02-29T19:53:17.111Z,75.20
2024-02-29T19:56:11.978Z,75.00
2024-02-29T19:59:06.314Z,74.90
2024-02-29T20:02:00.701Z,74.90
2024-02-29T20:04:55.042Z,74.80
2024-02-29T20:07:49.717Z,74.80
2024-02-29T20:10:44.247Z,74.50
2024-02-29T20:13:38.699Z,74.50
2024-02-29T20:16:33.074Z,74.30
2024-02-29T20:19:28.651Z,74.60
2024-02-29T20:22:24.921Z,74.70
2024-02-29T20:25:19.464Z,74.80
2024-02-29T20:28:13.863Z,75.00
2024-02-29T20:31:09.593Z,75.20
2024-02-29T20:34:04.275Z,75.50
2024-02-29T20:36:59.705Z,75.70
2024-02-29T20:39:55.497Z,75.80
2024-02-29T20:42:50.412Z,75.70
2024-02-29T20:45:44.947Z,75.90
2024-02-29T20:48:40.285Z,76.00
2024-02-29T20:51:34.705Z,76.30
2024-02-29T20:54:30.711Z,76.40
2024-02-29T20:57:28.370Z,76.50
2024-02-29T21:00:23.030Z,76.60
2024-02-29T21:03:17.664Z,76.50
2024-02-29T21:06:12.436Z,77.10
2024-02-29T21:09:07.053Z,77.40
2024-02-29T21:12:01.921Z,77.70
2024-02-29T21:14:56.829Z,77.70
2024-02-29T21:17:52.642Z,77.80
2024-02-29T21:20:47.152Z,77.80
2024-02-29T21:23:41.866Z,77.40
2024-02-29T21:26:36.294Z,77.40
2024-02-29T21:29:31.831Z,77.60
2024-02-29T21:32:26.554Z,77.40
2024-02-29T21:35:22.670Z,77.40
2024-02-29T21:38:17.315Z,77.50
2024-02-29T21:41:12.936Z,77.60
2024-02-29T21:44:07.858Z,77.80
2024-02-29T21:47:02.483Z,78.50
2024-02-29T21:49:57.131Z,77.60
2024-02-29T21:52:52.089Z,77.80
2024-02-29T21:55:46.886Z,77.70
2024-02-29T21:58:45.838Z,77.70
2024-02-29T22:01:41.072Z,77.40
2024-02-29T22:04:35.905Z,77.60
2024-02-29T22:07:30.467Z,78.00
2024-02-29T22:10:26.910Z,78.80
2024-02-29T22:13:21.572Z,78.80
2024-02-29T22:16:16.071Z,78.80
2024-02-29T22:19:13.884Z,78.40
2024-02-29T22:22:09.073Z,78.40
2024-02-29T22:25:03.802Z,78.10
2024-02-29T22:27:58.431Z,77.80
2024-02-29T22:30:53.503Z,77.90
2024-02-29T22:33:48.056Z,77.50
2024-02-29T22:36:42.429Z,77.00
2024-02-29T22:39:37.117Z,77.20
2024-02-29T22:42:31.525Z,76.90
2024-02-29T22:45:26.052Z,76.60
2024-02-29T22:48:21.339Z,76.00
2024-02-29T22:51:15.735Z,74.20
2024-02-29T22:54:10.068Z,72.80
2024-02-29T22:57:04.539Z,68.80
2024-02-29T22:59:59.200Z,66.00
2024-02-29T23:02:53.583Z,62.10
2024-02-29T23:05:47.926Z,59.40
2024-02-29T23:08:42.736Z,57.80
2024-02-29T23:11:37.241Z,56.50
2024-02-29T23:14:31.706Z,56.50
2024-02-29T23:17:26.082Z,55.60
2024-02-29T23:20:20.928Z,55.40
2024-02-29T23:23:15.325Z,54.70
2024-02-29T23:26:09.831Z,52.50
2024-02-29T23:29:04.233Z,53.20
2024-02-29T23:31:59.099Z,52.80
2024-02-29T23:34:53.621Z,52.20
2024-02-29T23:37:48.051Z,52.10
2024-02-29T23:40:42.474Z,51.80
2024-02-29T23:43:36.857Z,50.10
2024-02-29T23:46:31.389Z,50.10
2024-02-29T23:49:25.989Z,49.80
2024-02-29T23:52:20.475Z,50.40
2024-02-29T23:55:14.898Z,50.10
2024-02-29T23:58:09.273Z,49.70
